Astoria Regional Airport Astoria US
ICAO: KAST
IATA: AST
Category: Medium
Scheduled Services: No

Elevation: 15 ft
TransAlt. 18000 ft.

Airport Communications:
ASOS:135.375
SEATTLE CNTR:124.2
AIR CG:38.18
MC MINNVILLE RDO:122.3
CTAF/UNICOM:122.8

KAST Zoom In..

If Map Doesn't Load, Click Here

Runways:

(A) RW 08 length 5795 ft width 100 ft
---- / hdg 77

(B) RW 13 length 4996 ft width 100 ft
---- / hdg 135

(C) RW 26 length 5795 ft width 100 ft
ILS 109.50 / hdg 257

(D) RW 31 length 4996 ft width 100 ft
---- / hdg 315

Location; KAST
Day. 23 / Time. 08.55 Zulu
* Altimeter: 30.11
* Temperature: 11° c. 51.8°f.
* Wind from: 130° Speed 03 kn.
Dewpoint: 11° c.
Visibility: 10 Statute Miles.
Clouds: Broken 3300 ft.
Clouds: Overcast 7500 ft.

KAST 230855Z AUTO 13003KT 10SM BKN033 OVC075 11/11 A3011 RMK AO2 SLP196 T01060106 53006


Wind From 130°
Speed 03 kn.

 
 
jpsmedia.com for Web Design worldairports.se 2018   terms of use